createdAt,value
2022-08-25T00:01:35.393Z,24.56
2022-08-25T00:04:03.394Z,24.58
2022-08-25T00:06:29.773Z,24.58
2022-08-25T00:08:59.524Z,24.57
2022-08-25T00:11:26.557Z,24.57
2022-08-25T00:13:54.156Z,24.57
2022-08-25T00:16:20.819Z,24.58
2022-08-25T00:18:49.424Z,24.57
2022-08-25T00:21:15.789Z,24.58
2022-08-25T00:23:42.211Z,24.57
2022-08-25T00:26:08.591Z,24.58
2022-08-25T00:28:35.566Z,24.58
2022-08-25T00:31:02.100Z,24.58
2022-08-25T00:33:28.523Z,24.57
2022-08-25T00:35:56.341Z,24.57
2022-08-25T00:38:22.698Z,24.57
2022-08-25T00:41:05.693Z,24.57
2022-08-25T00:43:38.011Z,24.55
2022-08-25T00:46:04.481Z,24.56
2022-08-25T00:48:30.869Z,24.57
2022-08-25T00:50:57.235Z,24.56
2022-08-25T00:53:24.230Z,24.55
2022-08-25T00:55:50.606Z,24.56
2022-08-25T00:58:18.479Z,24.55
2022-08-25T01:00:45.893Z,24.54
2022-08-25T01:03:12.300Z,24.57
2022-08-25T01:05:38.666Z,24.54
2022-08-25T01:08:07.011Z,24.54
2022-08-25T01:10:33.838Z,24.53
2022-08-25T01:13:01.698Z,24.52
2022-08-25T01:15:28.120Z,24.52
2022-08-25T01:17:54.919Z,24.51
2022-08-25T01:20:22.110Z,24.52
2022-08-25T01:22:55.133Z,24.51
2022-08-25T01:25:27.581Z,24.52
2022-08-25T01:27:53.939Z,24.51
2022-08-25T01:30:20.286Z,24.51
2022-08-25T01:32:46.750Z,24.51
2022-08-25T01:35:13.101Z,24.47
2022-08-25T01:37:39.465Z,24.47
2022-08-25T01:40:06.564Z,24.47
2022-08-25T01:42:37.419Z,24.45
2022-08-25T01:45:04.214Z,24.46
2022-08-25T01:47:31.935Z,24.46
2022-08-25T01:49:58.289Z,24.46
2022-08-25T01:52:53.767Z,24.45
2022-08-25T01:55:20.122Z,24.45
2022-08-25T01:57:46.473Z,24.43
2022-08-25T02:00:14.443Z,24.43
2022-08-25T02:02:42.470Z,24.43
2022-08-25T02:05:09.697Z,24.43
2022-08-25T02:07:36.373Z,24.42
2022-08-25T02:10:04.233Z,24.42
2022-08-25T02:12:33.625Z,24.42
2022-08-25T02:15:01.648Z,24.41
2022-08-25T02:17:28.550Z,24.40
2022-08-25T02:19:56.902Z,24.40
2022-08-25T02:22:23.368Z,24.40
2022-08-25T02:24:49.966Z,24.40
2022-08-25T02:27:16.401Z,24.40
2022-08-25T02:29:42.750Z,24.41
2022-08-25T02:32:10.306Z,24.39
2022-08-25T02:34:37.250Z,24.39
2022-08-25T02:37:03.611Z,24.38
2022-08-25T02:39:29.971Z,24.38
2022-08-25T02:41:56.330Z,24.44
2022-08-25T02:44:22.686Z,24.59
2022-08-25T02:46:49.034Z,24.46
2022-08-25T02:49:15.409Z,24.38
2022-08-25T02:51:42.869Z,24.35
2022-08-25T02:54:10.199Z,24.33
2022-08-25T02:56:36.654Z,24.33
2022-08-25T02:59:03.100Z,24.32
2022-08-25T03:01:33.767Z,24.32
2022-08-25T03:04:07.125Z,24.31
2022-08-25T03:06:33.469Z,24.31
2022-08-25T03:09:08.618Z,24.31
2022-08-25T03:11:35.018Z,24.31
2022-08-25T03:14:01.399Z,24.31
2022-08-25T03:16:28.214Z,24.31
2022-08-25T03:18:54.683Z,24.29
2022-08-25T03:21:21.310Z,24.29
2022-08-25T03:23:48.470Z,24.30
2022-08-25T03:26:33.378Z,24.29
2022-08-25T03:29:00.238Z,24.28
2022-08-25T03:31:27.693Z,24.28
2022-08-25T03:33:54.318Z,24.28
2022-08-25T03:36:20.678Z,24.28
2022-08-25T03:38:47.033Z,24.28
2022-08-25T03:41:32.748Z,24.27
2022-08-25T03:43:59.725Z,24.26
2022-08-25T03:46:26.984Z,24.27
2022-08-25T03:48:53.372Z,24.25
2022-08-25T03:51:23.009Z,24.25
2022-08-25T03:53:49.386Z,24.24
2022-08-25T03:56:16.171Z,24.24
2022-08-25T03:58:42.586Z,24.23
2022-08-25T04:01:09.499Z,24.24
2022-08-25T04:03:35.921Z,24.24
2022-08-25T04:06:10.114Z,24.25
2022-08-25T04:08:36.609Z,24.22
2022-08-25T04:11:10.198Z,24.23
2022-08-25T04:13:36.813Z,24.05
2022-08-25T04:16:04.389Z,23.83
2022-08-25T04:18:31.281Z,22.24
2022-08-25T04:21:04.057Z,18.90
2022-08-25T04:23:30.427Z,18.18
2022-08-25T04:25:56.794Z,18.15
2022-08-25T04:28:23.935Z,18.90
2022-08-25T04:30:52.123Z,18.58
2022-08-25T04:33:18.660Z,19.09
2022-08-25T04:35:48.867Z,18.92
2022-08-25T04:38:15.236Z,18.91
2022-08-25T04:40:41.595Z,19.03
2022-08-25T04:43:07.969Z,19.34
2022-08-25T04:45:38.434Z,20.17
2022-08-25T04:48:04.865Z,20.50
2022-08-25T04:50:31.320Z,20.68
2022-08-25T04:52:59.602Z,20.79
2022-08-25T04:55:28.972Z,20.73
2022-08-25T04:57:55.356Z,20.76
2022-08-25T05:00:21.729Z,20.78
2022-08-25T05:02:48.105Z,20.72
2022-08-25T05:05:14.469Z,20.75
2022-08-25T05:07:51.327Z,20.97
2022-08-25T05:10:17.730Z,21.06
2022-08-25T05:12:44.090Z,21.26
2022-08-25T05:15:29.514Z,21.06
2022-08-25T05:17:56.239Z,21.19
2022-08-25T05:20:22.847Z,21.33
2022-08-25T05:22:49.240Z,21.47
2022-08-25T05:25:15.734Z,21.52
2022-08-25T05:27:42.290Z,21.37
2022-08-25T05:30:09.792Z,21.31
2022-08-25T05:32:36.219Z,21.39
2022-08-25T05:35:02.794Z,21.45
2022-08-25T05:37:29.145Z,21.53
2022-08-25T05:39:55.524Z,21.58
2022-08-25T05:42:22.722Z,22.00
2022-08-25T05:44:49.143Z,21.71
2022-08-25T05:47:15.498Z,21.48
2022-08-25T05:49:41.884Z,21.81
2022-08-25T05:52:08.255Z,22.08
2022-08-25T05:54:34.613Z,21.90
2022-08-25T05:57:01.222Z,21.93
2022-08-25T05:59:27.607Z,21.99
2022-08-25T06:02:12.827Z,21.81
2022-08-25T06:04:41.273Z,21.88
2022-08-25T06:07:07.802Z,22.29
2022-08-25T06:09:34.176Z,22.16
2022-08-25T06:12:00.703Z,21.67
2022-08-25T06:14:27.396Z,21.72
2022-08-25T06:16:53.773Z,21.87
2022-08-25T06:19:21.112Z,22.33
2022-08-25T06:21:47.757Z,22.32
2022-08-25T06:24:15.687Z,22.25
2022-08-25T06:26:42.286Z,22.51
2022-08-25T06:29:08.656Z,22.46
2022-08-25T06:31:35.120Z,22.06
2022-08-25T06:34:01.550Z,21.97
2022-08-25T06:36:28.254Z,22.02
2022-08-25T06:38:54.631Z,22.08
2022-08-25T06:41:20.991Z,22.11
2022-08-25T06:43:50.755Z,21.92
2022-08-25T06:46:18.322Z,22.17
2022-08-25T06:48:44.718Z,22.39
2022-08-25T06:51:13.916Z,22.41
2022-08-25T06:53:40.663Z,22.58
2022-08-25T06:56:07.051Z,22.58
2022-08-25T06:58:33.929Z,22.38
2022-08-25T07:01:14.955Z,22.12
2022-08-25T07:03:45.989Z,22.10
2022-08-25T07:06:14.004Z,21.97
2022-08-25T07:08:41.042Z,22.14
2022-08-25T07:11:07.763Z,21.93
2022-08-25T07:13:42.860Z,21.84
2022-08-25T07:16:11.043Z,21.61
2022-08-25T07:18:37.800Z,22.50
2022-08-25T07:21:04.171Z,22.47
2022-08-25T07:23:30.559Z,22.93
2022-08-25T07:25:56.933Z,23.07
2022-08-25T07:28:23.302Z,23.02
2022-08-25T07:30:52.163Z,22.89
2022-08-25T07:33:18.676Z,23.05
2022-08-25T07:35:45.284Z,23.12
2022-08-25T07:38:13.552Z,22.93
2022-08-25T07:40:46.057Z,23.20
2022-08-25T07:43:19.856Z,23.35
2022-08-25T07:48:32.948Z,23.50
2022-08-25T07:51:01.747Z,23.62
2022-08-25T07:53:30.611Z,23.69
2022-08-25T07:55:57.026Z,23.67
2022-08-25T07:58:23.435Z,23.72
2022-08-25T08:00:53.063Z,23.75
2022-08-25T08:03:42.309Z,23.76
2022-08-25T08:06:07.539Z,23.83
2022-08-25T08:08:33.911Z,23.85
2022-08-25T08:11:04.775Z,23.80
2022-08-25T08:13:32.663Z,23.80
2022-08-25T08:16:01.222Z,23.82
2022-08-25T08:18:27.630Z,23.82
2022-08-25T08:20:54.069Z,23.87
2022-08-25T08:23:21.060Z,23.91
2022-08-25T08:25:47.954Z,23.89
2022-08-25T08:28:14.377Z,23.93
2022-08-25T08:30:40.750Z,23.99
2022-08-25T08:33:20.538Z,23.97
2022-08-25T08:35:47.503Z,23.97
2022-08-25T08:38:19.578Z,24.00
2022-08-25T08:41:14.502Z,23.96
2022-08-25T08:43:41.760Z,24.02
2022-08-25T08:46:08.301Z,24.00
2022-08-25T08:48:44.528Z,24.02
2022-08-25T08:51:17.155Z,24.03
2022-08-25T08:53:52.503Z,24.09
2022-08-25T08:56:30.780Z,24.06
2022-08-25T08:59:06.427Z,23.95
2022-08-25T09:01:42.414Z,23.88
2022-08-25T09:04:11.107Z,23.89
2022-08-25T09:06:45.509Z,23.88
2022-08-25T09:09:12.366Z,23.85
2022-08-25T09:11:47.493Z,23.80
2022-08-25T09:14:18.709Z,23.80
2022-08-25T09:16:56.890Z,23.80
2022-08-25T09:19:26.173Z,23.78
2022-08-25T09:21:52.765Z,23.73
2022-08-25T09:24:36.003Z,23.79
2022-08-25T09:27:24.240Z,23.82
2022-08-25T09:30:05.573Z,23.83
2022-08-25T09:32:34.098Z,23.83
2022-08-25T09:35:01.990Z,23.83
2022-08-25T09:37:28.417Z,23.83
2022-08-25T09:39:54.847Z,23.92
2022-08-25T09:42:27.541Z,24.10
2022-08-25T09:44:54.486Z,24.17
2022-08-25T09:47:24.254Z,24.22
2022-08-25T09:50:00.964Z,24.27
2022-08-25T09:52:37.279Z,24.31
2022-08-25T09:55:20.379Z,24.28
2022-08-25T09:57:47.759Z,24.44
2022-08-25T10:00:14.356Z,24.67
2022-08-25T10:02:41.534Z,24.47
2022-08-25T10:05:25.819Z,24.44
2022-08-25T10:07:54.265Z,24.44
2022-08-25T10:10:25.882Z,24.44
2022-08-25T10:12:52.329Z,24.43
2022-08-25T10:15:29.749Z,24.45
2022-08-25T10:17:59.853Z,24.57
2022-08-25T10:20:26.679Z,24.47
2022-08-25T10:23:13.070Z,24.44
2022-08-25T10:25:57.694Z,24.48
2022-08-25T10:28:29.476Z,24.59
2022-08-25T10:31:14.922Z,24.64
2022-08-25T10:33:41.273Z,24.78
2022-08-25T10:36:10.657Z,24.81
2022-08-25T10:38:37.007Z,24.83
2022-08-25T10:41:22.403Z,24.83
2022-08-25T10:43:59.223Z,24.81
2022-08-25T10:46:30.217Z,24.81
2022-08-25T10:49:04.518Z,25.03
2022-08-25T10:51:32.806Z,24.90
2022-08-25T10:54:20.387Z,24.86
2022-08-25T10:56:50.250Z,24.73
2022-08-25T10:59:31.556Z,24.65
2022-08-25T11:02:03.290Z,24.73
2022-08-25T11:04:36.505Z,24.74
2022-08-25T11:07:23.217Z,24.79
2022-08-25T11:09:51.050Z,24.80
2022-08-25T11:22:07.309Z,24.77
2022-08-25T11:27:53.750Z,24.69
2022-08-25T11:30:21.465Z,24.58
2022-08-25T11:32:51.161Z,24.65
2022-08-25T11:35:23.062Z,24.79
2022-08-25T11:37:56.955Z,24.78
2022-08-25T11:40:29.657Z,24.67
2022-08-25T11:42:57.533Z,24.87
2022-08-25T11:45:42.546Z,25.18
2022-08-25T11:48:12.079Z,25.23
2022-08-25T11:50:57.793Z,25.38
2022-08-25T11:53:29.036Z,25.46
2022-08-25T11:56:04.184Z,25.55
2022-08-25T11:58:40.957Z,25.58
2022-08-25T12:01:25.844Z,25.59
2022-08-25T12:03:52.918Z,25.41
2022-08-25T12:06:26.611Z,25.06
2022-08-25T12:08:54.170Z,25.03
2022-08-25T12:11:42.999Z,25.14
2022-08-25T12:14:16.726Z,25.21
2022-08-25T12:16:44.040Z,25.17
2022-08-25T12:19:30.442Z,25.09
2022-08-25T12:22:19.053Z,24.94
2022-08-25T12:24:48.773Z,24.99
2022-08-25T12:27:33.610Z,25.18
2022-08-25T12:30:29.628Z,25.27
2022-08-25T12:33:08.474Z,25.36
2022-08-25T12:35:40.238Z,25.40
2022-08-25T12:38:09.394Z,25.44
2022-08-25T12:40:52.551Z,25.41
2022-08-25T12:43:37.230Z,25.40
2022-08-25T12:46:29.600Z,25.42
2022-08-25T12:48:57.055Z,25.29
2022-08-25T12:51:25.210Z,25.09
2022-08-25T12:53:53.302Z,25.02
2022-08-25T12:56:19.572Z,25.00
2022-08-25T12:59:01.075Z,24.98
2022-08-25T13:01:36.003Z,24.95
2022-08-25T13:04:26.422Z,24.94
2022-08-25T13:07:04.891Z,24.91
2022-08-25T13:09:53.659Z,24.90
2022-08-25T13:12:39.030Z,24.91
2022-08-25T13:15:05.535Z,24.92
2022-08-25T13:17:33.658Z,24.91
2022-08-25T13:20:17.117Z,25.04
2022-08-25T13:22:47.427Z,25.16
2022-08-25T13:25:16.096Z,25.24
2022-08-25T13:27:49.022Z,25.21
2022-08-25T13:30:19.907Z,25.40
2022-08-25T13:32:46.264Z,25.83
2022-08-25T13:35:17.806Z,26.04
2022-08-25T13:37:46.364Z,25.98
2022-08-25T13:40:16.384Z,25.93
2022-08-25T13:42:50.910Z,26.13
2022-08-25T13:45:22.097Z,26.16
2022-08-25T13:47:50.374Z,26.31
2022-08-25T13:50:28.888Z,26.55
2022-08-25T13:52:56.446Z,26.63
2022-08-25T13:55:27.793Z,26.50
2022-08-25T13:57:55.214Z,26.57
2022-08-25T14:00:43.166Z,26.54
2022-08-25T14:03:16.857Z,26.61
2022-08-25T14:05:46.800Z,26.54
2022-08-25T14:08:28.991Z,26.62
2022-08-25T14:11:07.886Z,26.65
2022-08-25T14:13:44.523Z,26.64
2022-08-25T14:16:12.568Z,26.67
2022-08-25T14:18:39.422Z,26.57
2022-08-25T14:21:10.074Z,26.43
2022-08-25T14:23:36.572Z,26.56
2022-08-25T14:26:02.940Z,26.48
2022-08-25T14:28:33.421Z,26.41
2022-08-25T14:31:00.268Z,26.47
2022-08-25T14:33:30.259Z,26.71
2022-08-25T14:35:58.026Z,26.56
2022-08-25T14:38:24.527Z,26.42
2022-08-25T14:40:50.986Z,26.64
2022-08-25T14:43:17.425Z,26.45
2022-08-25T14:45:44.178Z,26.46
2022-08-25T14:48:17.975Z,26.30
2022-08-25T14:50:44.352Z,25.98
2022-08-25T14:53:11.228Z,25.84
2022-08-25T14:55:38.711Z,25.76
2022-08-25T14:58:06.830Z,25.75
2022-08-25T15:00:34.146Z,25.86
2022-08-25T15:03:01.442Z,25.87
2022-08-25T15:05:29.007Z,25.94
2022-08-25T15:08:15.201Z,25.76
2022-08-25T15:10:41.602Z,25.66
2022-08-25T15:13:09.678Z,25.62
2022-08-25T15:15:39.866Z,25.59
2022-08-25T15:18:19.436Z,25.56
2022-08-25T15:20:46.743Z,25.54
2022-08-25T15:23:16.352Z,25.52
2022-08-25T15:25:42.731Z,25.51
2022-08-25T15:28:10.124Z,25.48
2022-08-25T15:30:36.641Z,25.47
2022-08-25T15:33:03.006Z,25.45
2022-08-25T15:35:30.999Z,25.44
2022-08-25T15:37:57.621Z,25.43
2022-08-25T15:40:24.017Z,25.42
2022-08-25T15:42:51.087Z,25.41
2022-08-25T15:45:17.454Z,25.40
2022-08-25T15:47:44.187Z,25.39
2022-08-25T15:50:11.968Z,25.39
2022-08-25T15:52:46.458Z,25.37
2022-08-25T15:55:13.977Z,25.42
2022-08-25T15:57:40.338Z,25.50
2022-08-25T16:00:11.132Z,25.66
2022-08-25T16:02:39.421Z,25.69
2022-08-25T16:05:06.793Z,25.80
2022-08-25T16:07:33.176Z,25.87
2022-08-25T16:09:59.546Z,25.91
2022-08-25T16:12:25.911Z,25.85
2022-08-25T16:14:54.358Z,25.80
2022-08-25T16:17:22.089Z,25.80
2022-08-25T16:19:48.535Z,25.89
2022-08-25T16:22:14.933Z,25.95
2022-08-25T16:24:42.522Z,25.91
2022-08-25T16:27:11.472Z,25.85
2022-08-25T16:29:38.539Z,25.84
2022-08-25T16:32:05.232Z,25.79
2022-08-25T16:34:31.784Z,25.89
2022-08-25T16:37:00.803Z,25.88
2022-08-25T16:39:27.205Z,25.83
2022-08-25T16:41:53.578Z,25.80
2022-08-25T16:44:22.655Z,25.73
2022-08-25T16:46:49.343Z,25.80
2022-08-25T16:49:17.436Z,25.78
2022-08-25T16:51:43.803Z,25.74
2022-08-25T16:54:29.083Z,25.77
2022-08-25T16:56:55.659Z,25.71
2022-08-25T16:59:22.127Z,25.69
2022-08-25T17:01:50.100Z,25.77
2022-08-25T17:04:17.270Z,25.86
2022-08-25T17:06:49.609Z,25.83
2022-08-25T17:09:23.055Z,25.87
2022-08-25T17:11:50.486Z,25.89
2022-08-25T17:14:18.020Z,25.79
2022-08-25T17:16:44.403Z,25.88
2022-08-25T17:19:12.640Z,25.84
2022-08-25T17:21:40.545Z,25.83
2022-08-25T17:24:11.662Z,25.74
2022-08-25T17:26:38.749Z,25.73
2022-08-25T17:29:05.111Z,25.74
2022-08-25T17:31:34.978Z,25.71
2022-08-25T17:34:01.486Z,25.69
2022-08-25T17:36:27.867Z,25.67
2022-08-25T17:38:54.547Z,25.66
2022-08-25T17:41:21.034Z,25.63
2022-08-25T17:43:47.665Z,25.63
2022-08-25T17:46:15.167Z,25.62
2022-08-25T17:48:43.740Z,25.58
2022-08-25T17:51:10.327Z,25.55
2022-08-25T17:53:36.687Z,25.54
2022-08-25T17:56:04.717Z,25.53
2022-08-25T17:58:31.175Z,25.50
2022-08-25T18:00:57.683Z,25.49
2022-08-25T18:03:25.451Z,25.48
2022-08-25T18:05:51.826Z,25.47
2022-08-25T18:08:18.800Z,25.47
2022-08-25T18:10:46.040Z,25.46
2022-08-25T18:13:12.432Z,25.55
2022-08-25T18:15:39.159Z,25.64
2022-08-25T18:18:09.612Z,25.71
2022-08-25T18:20:38.873Z,25.70
2022-08-25T18:23:09.458Z,25.71
2022-08-25T18:25:36.217Z,25.57
2022-08-25T18:28:02.681Z,25.64
2022-08-25T18:30:29.070Z,25.65
2022-08-25T18:32:55.413Z,25.63
2022-08-25T18:35:22.276Z,25.62
2022-08-25T18:38:11.556Z,25.61
2022-08-25T18:40:39.113Z,25.60
2022-08-25T18:43:06.766Z,25.63
2022-08-25T18:45:37.964Z,25.70
2022-08-25T18:48:13.739Z,25.75
2022-08-25T18:50:40.994Z,25.80
2022-08-25T18:53:07.422Z,25.78
2022-08-25T18:55:33.875Z,25.76
2022-08-25T18:58:00.472Z,25.73
2022-08-25T19:00:27.638Z,25.76
2022-08-25T19:02:54.850Z,25.79
2022-08-25T19:05:23.601Z,25.69
2022-08-25T19:07:52.903Z,25.60
2022-08-25T19:10:19.765Z,25.58
2022-08-25T19:12:46.122Z,25.56
2022-08-25T19:15:12.725Z,25.55
2022-08-25T19:17:39.069Z,25.53
2022-08-25T19:20:11.387Z,25.52
2022-08-25T19:22:41.838Z,25.51
2022-08-25T19:25:09.353Z,25.49
2022-08-25T19:27:35.704Z,25.48
2022-08-25T19:30:02.325Z,25.47
2022-08-25T19:32:28.742Z,25.47
2022-08-25T19:34:55.443Z,25.46
2022-08-25T19:37:23.749Z,25.49
2022-08-25T19:39:53.846Z,25.64
2022-08-25T19:42:37.019Z,25.64
2022-08-25T19:45:07.025Z,25.53
2022-08-25T19:47:33.396Z,25.68
2022-08-25T19:49:59.843Z,25.61
2022-08-25T19:52:26.593Z,25.71
2022-08-25T19:54:53.358Z,25.81
2022-08-25T19:57:27.756Z,25.79
2022-08-25T19:59:55.059Z,25.74
2022-08-25T20:02:22.383Z,25.74
2022-08-25T20:04:50.256Z,25.64
2022-08-25T20:07:17.429Z,25.50
2022-08-25T20:09:45.271Z,25.58
2022-08-25T20:12:11.941Z,25.67
2022-08-25T20:14:38.375Z,25.80
2022-08-25T20:17:04.720Z,25.82
2022-08-25T20:19:49.807Z,25.80
2022-08-25T20:22:17.414Z,25.71
2022-08-25T20:24:55.922Z,25.77
2022-08-25T20:27:25.383Z,25.86
2022-08-25T20:29:51.743Z,25.73
2022-08-25T20:32:19.339Z,25.69
2022-08-25T20:34:46.038Z,25.73
2022-08-25T20:37:12.645Z,25.72
2022-08-25T20:39:39.134Z,25.77
2022-08-25T20:42:05.515Z,25.79
2022-08-25T20:44:33.824Z,25.68
2022-08-25T20:47:01.463Z,25.47
2022-08-25T20:49:28.345Z,25.36
2022-08-25T20:51:54.715Z,25.38
2022-08-25T20:54:21.454Z,25.32
2022-08-25T20:56:49.296Z,25.22
2022-08-25T20:59:16.886Z,25.28
2022-08-25T21:01:43.300Z,25.22
2022-08-25T21:04:11.245Z,25.25
2022-08-25T21:06:40.864Z,25.23
2022-08-25T21:09:12.467Z,25.16
2022-08-25T21:11:42.169Z,25.20
2022-08-25T21:14:09.732Z,25.21
2022-08-25T21:16:37.608Z,25.19
2022-08-25T21:19:03.997Z,25.22
2022-08-25T21:21:35.278Z,25.18
2022-08-25T21:24:01.899Z,25.17
2022-08-25T21:26:29.569Z,25.17
2022-08-25T21:28:59.839Z,25.17
2022-08-25T21:31:26.330Z,25.16
2022-08-25T21:33:53.119Z,25.16
2022-08-25T21:36:20.322Z,25.14
2022-08-25T21:38:47.597Z,25.15
2022-08-25T21:41:15.464Z,25.13
2022-08-25T21:43:41.809Z,25.12
2022-08-25T21:46:11.398Z,25.12
2022-08-25T21:48:41.483Z,25.10
2022-08-25T21:51:09.146Z,25.07
2022-08-25T21:53:35.614Z,25.05
2022-08-25T21:56:02.770Z,25.06
2022-08-25T21:58:29.647Z,25.04
2022-08-25T22:00:56.064Z,25.03
2022-08-25T22:03:22.420Z,25.03
2022-08-25T22:05:49.639Z,25.01
2022-08-25T22:08:16.627Z,25.01
2022-08-25T22:10:44.446Z,24.99
2022-08-25T22:13:10.867Z,24.99
2022-08-25T22:15:37.809Z,24.97
2022-08-25T22:18:04.159Z,24.97
2022-08-25T22:20:30.933Z,24.97
2022-08-25T22:22:57.313Z,24.94
2022-08-25T22:25:26.406Z,24.95
2022-08-25T22:27:56.660Z,24.94
2022-08-25T22:30:23.935Z,24.94
2022-08-25T22:32:51.023Z,24.93
2022-08-25T22:35:17.410Z,24.92
2022-08-25T22:37:46.945Z,24.92
2022-08-25T22:40:13.886Z,24.90
2022-08-25T22:42:42.287Z,24.89
2022-08-25T22:45:11.250Z,24.90
2022-08-25T22:47:37.609Z,24.90
2022-08-25T22:50:04.787Z,24.88
2022-08-25T22:52:33.659Z,24.87
2022-08-25T22:55:00.322Z,24.87
2022-08-25T22:57:26.925Z,24.87
2022-08-25T22:59:56.471Z,24.85
2022-08-25T23:02:22.910Z,24.84
2022-08-25T23:04:49.327Z,24.83
2022-08-25T23:07:16.021Z,24.83
2022-08-25T23:09:42.388Z,24.82
2022-08-25T23:12:10.967Z,24.81
2022-08-25T23:14:38.312Z,24.81
2022-08-25T23:17:08.725Z,24.81
2022-08-25T23:19:35.151Z,24.80
2022-08-25T23:22:10.976Z,24.78
2022-08-25T23:24:38.054Z,24.79
2022-08-25T23:27:09.355Z,24.79
2022-08-25T23:29:36.353Z,24.77
2022-08-25T23:32:02.869Z,24.77
2022-08-25T23:34:29.278Z,24.77
2022-08-25T23:36:55.875Z,24.77
2022-08-25T23:39:22.494Z,24.75
2022-08-25T23:41:49.237Z,24.73
2022-08-25T23:44:17.175Z,24.73
2022-08-25T23:46:44.422Z,24.75
2022-08-25T23:49:10.893Z,24.73
2022-08-25T23:51:38.009Z,24.72
2022-08-25T23:54:05.934Z,24.71
2022-08-25T23:56:35.308Z,24.72
2022-08-25T23:59:02.992Z,24.71
